sensor_id;sensor_type;location;lat;lon;timestamp;P1;durP1;ratioP1;P2;durP2;ratioP2
21733;SDS011;11029;47.820;10.534;2022-07-06T00:01:51;1.92;;;1.80;;
21733;SDS011;11029;47.820;10.534;2022-07-06T00:04:18;3.00;;;2.05;;
21733;SDS011;11029;47.820;10.534;2022-07-06T00:06:45;2.90;;;1.83;;
21733;SDS011;11029;47.820;10.534;2022-07-06T00:09:12;2.05;;;1.90;;
21733;SDS011;11029;47.820;10.534;2022-07-06T00:11:39;2.65;;;2.05;;
21733;SDS011;11029;47.820;10.534;2022-07-06T00:14:05;2.17;;;1.95;;
21733;SDS011;11029;47.820;10.534;2022-07-06T00:16:32;2.90;;;1.90;;
21733;SDS011;11029;47.820;10.534;2022-07-06T00:18:59;5.43;;;2.00;;
21733;SDS011;11029;47.820;10.534;2022-07-06T00:21:26;2.00;;;1.90;;
21733;SDS011;11029;47.820;10.534;2022-07-06T00:23:53;2.33;;;1.70;;
21733;SDS011;11029;47.820;10.534;2022-07-06T00:26:20;1.70;;;1.60;;
21733;SDS011;11029;47.820;10.534;2022-07-06T00:28:46;2.13;;;1.73;;
21733;SDS011;11029;47.820;10.534;2022-07-06T00:31:13;3.83;;;1.80;;
21733;SDS011;11029;47.820;10.534;2022-07-06T00:33:40;1.80;;;1.70;;
21733;SDS011;11029;47.820;10.534;2022-07-06T00:36:07;1.90;;;1.60;;
21733;SDS011;11029;47.820;10.534;2022-07-06T00:38:34;2.30;;;1.80;;
21733;SDS011;11029;47.820;10.534;2022-07-06T00:41:02;2.97;;;1.80;;
21733;SDS011;11029;47.820;10.534;2022-07-06T00:43:45;1.83;;;1.50;;
21733;SDS011;11029;47.820;10.534;2022-07-06T00:46:13;1.70;;;1.60;;
21733;SDS011;11029;47.820;10.534;2022-07-06T00:48:40;2.00;;;1.90;;
21733;SDS011;11029;47.820;10.534;2022-07-06T00:51:07;1.83;;;1.73;;
21733;SDS011;11029;47.820;10.534;2022-07-06T00:53:34;2.75;;;1.38;;
21733;SDS011;11029;47.820;10.534;2022-07-06T00:56:01;1.85;;;1.75;;
21733;SDS011;11029;47.820;10.534;2022-07-06T00:58:28;2.70;;;1.88;;
21733;SDS011;11029;47.820;10.534;2022-07-06T01:00:55;2.45;;;2.25;;
21733;SDS011;11029;47.820;10.534;2022-07-06T01:03:22;2.30;;;1.67;;
21733;SDS011;11029;47.820;10.534;2022-07-06T01:05:49;2.42;;;1.60;;
21733;SDS011;11029;47.820;10.534;2022-07-06T01:08:16;3.15;;;2.03;;
21733;SDS011;11029;47.820;10.534;2022-07-06T01:10:43;2.15;;;2.00;;
21733;SDS011;11029;47.820;10.534;2022-07-06T01:13:10;2.85;;;1.50;;
21733;SDS011;11029;47.820;10.534;2022-07-06T01:15:37;5.28;;;2.20;;
21733;SDS011;11029;47.820;10.534;2022-07-06T01:18:04;1.70;;;1.60;;
21733;SDS011;11029;47.820;10.534;2022-07-06T01:20:32;1.63;;;1.52;;
21733;SDS011;11029;47.820;10.534;2022-07-06T01:22:59;2.38;;;1.67;;
21733;SDS011;11029;47.820;10.534;2022-07-06T01:25:26;4.90;;;2.15;;
21733;SDS011;11029;47.820;10.534;2022-07-06T01:27:53;4.68;;;2.17;;
21733;SDS011;11029;47.820;10.534;2022-07-06T01:30:19;1.65;;;1.55;;
21733;SDS011;11029;47.820;10.534;2022-07-06T01:32:46;6.28;;;2.10;;
21733;SDS011;11029;47.820;10.534;2022-07-06T01:35:14;1.75;;;1.65;;
21733;SDS011;11029;47.820;10.534;2022-07-06T01:37:42;2.72;;;1.77;;
21733;SDS011;11029;47.820;10.534;2022-07-06T01:40:09;1.60;;;1.50;;
21733;SDS011;11029;47.820;10.534;2022-07-06T01:42:37;8.05;;;2.00;;
21733;SDS011;11029;47.820;10.534;2022-07-06T01:45:05;1.88;;;1.73;;
21733;SDS011;11029;47.820;10.534;2022-07-06T01:47:34;2.50;;;1.67;;
21733;SDS011;11029;47.820;10.534;2022-07-06T01:50:01;1.98;;;1.83;;
21733;SDS011;11029;47.820;10.534;2022-07-06T01:52:33;2.20;;;1.70;;
21733;SDS011;11029;47.820;10.534;2022-07-06T01:55:01;2.08;;;1.70;;
21733;SDS011;11029;47.820;10.534;2022-07-06T01:57:30;3.60;;;1.75;;
21733;SDS011;11029;47.820;10.534;2022-07-06T01:59:57;2.83;;;1.80;;
21733;SDS011;11029;47.820;10.534;2022-07-06T02:02:24;2.65;;;1.70;;
21733;SDS011;11029;47.820;10.534;2022-07-06T02:04:50;2.88;;;1.88;;
21733;SDS011;11029;47.820;10.534;2022-07-06T02:07:17;1.95;;;1.85;;
21733;SDS011;11029;47.820;10.534;2022-07-06T02:09:44;3.40;;;1.70;;
21733;SDS011;11029;47.820;10.534;2022-07-06T02:12:11;2.10;;;1.90;;
21733;SDS011;11029;47.820;10.534;2022-07-06T02:14:38;1.52;;;1.42;;
21733;SDS011;11029;47.820;10.534;2022-07-06T02:17:04;2.25;;;1.60;;
21733;SDS011;11029;47.820;10.534;2022-07-06T02:19:33;1.77;;;1.67;;
21733;SDS011;11029;47.820;10.534;2022-07-06T02:22:00;4.03;;;1.77;;
21733;SDS011;11029;47.820;10.534;2022-07-06T02:24:28;4.63;;;1.83;;
21733;SDS011;11029;47.820;10.534;2022-07-06T02:26:54;2.55;;;1.73;;
21733;SDS011;11029;47.820;10.534;2022-07-06T02:29:22;3.35;;;1.65;;
21733;SDS011;11029;47.820;10.534;2022-07-06T02:31:49;3.47;;;2.00;;
21733;SDS011;11029;47.820;10.534;2022-07-06T02:34:16;4.28;;;1.70;;
21733;SDS011;11029;47.820;10.534;2022-07-06T02:36:42;2.97;;;1.98;;
21733;SDS011;11029;47.820;10.534;2022-07-06T02:39:09;2.33;;;2.10;;
21733;SDS011;11029;47.820;10.534;2022-07-06T02:41:36;2.58;;;1.80;;
21733;SDS011;11029;47.820;10.534;2022-07-06T02:44:03;1.83;;;1.73;;
21733;SDS011;11029;47.820;10.534;2022-07-06T02:46:30;1.83;;;1.73;;
21733;SDS011;11029;47.820;10.534;2022-07-06T02:48:57;1.70;;;1.60;;
21733;SDS011;11029;47.820;10.534;2022-07-06T02:51:24;2.97;;;1.50;;
21733;SDS011;11029;47.820;10.534;2022-07-06T02:53:50;1.90;;;1.40;;
21733;SDS011;11029;47.820;10.534;2022-07-06T02:56:17;2.30;;;1.30;;
21733;SDS011;11029;47.820;10.534;2022-07-06T02:58:44;2.55;;;1.30;;
21733;SDS011;11029;47.820;10.534;2022-07-06T03:01:12;1.77;;;1.67;;
21733;SDS011;11029;47.820;10.534;2022-07-06T03:03:39;4.60;;;1.50;;
21733;SDS011;11029;47.820;10.534;2022-07-06T03:06:06;1.95;;;1.70;;
21733;SDS011;11029;47.820;10.534;2022-07-06T03:08:33;1.50;;;1.33;;
21733;SDS011;11029;47.820;10.534;2022-07-06T03:11:01;1.38;;;1.27;;
21733;SDS011;11029;47.820;10.534;2022-07-06T03:13:28;1.33;;;1.20;;
21733;SDS011;11029;47.820;10.534;2022-07-06T03:15:56;1.40;;;1.30;;
21733;SDS011;11029;47.820;10.534;2022-07-06T03:18:22;1.25;;;1.23;;
21733;SDS011;11029;47.820;10.534;2022-07-06T03:20:50;3.20;;;1.23;;
21733;SDS011;11029;47.820;10.534;2022-07-06T03:23:17;2.60;;;1.25;;
21733;SDS011;11029;47.820;10.534;2022-07-06T03:25:44;3.42;;;1.30;;
21733;SDS011;11029;47.820;10.534;2022-07-06T03:28:11;1.10;;;1.10;;
21733;SDS011;11029;47.820;10.534;2022-07-06T03:30:38;2.15;;;1.30;;
21733;SDS011;11029;47.820;10.534;2022-07-06T03:33:05;2.25;;;1.50;;
21733;SDS011;11029;47.820;10.534;2022-07-06T03:35:32;1.80;;;1.70;;
21733;SDS011;11029;47.820;10.534;2022-07-06T03:38:01;2.45;;;1.40;;
21733;SDS011;11029;47.820;10.534;2022-07-06T03:40:30;2.38;;;1.40;;
21733;SDS011;11029;47.820;10.534;2022-07-06T03:42:57;1.52;;;1.25;;
21733;SDS011;11029;47.820;10.534;2022-07-06T03:45:25;1.40;;;1.30;;
21733;SDS011;11029;47.820;10.534;2022-07-06T03:47:52;1.65;;;1.50;;
21733;SDS011;11029;47.820;10.534;2022-07-06T03:50:19;1.15;;;1.15;;
21733;SDS011;11029;47.820;10.534;2022-07-06T03:52:46;1.98;;;1.58;;
21733;SDS011;11029;47.820;10.534;2022-07-06T03:55:13;1.27;;;1.27;;
21733;SDS011;11029;47.820;10.534;2022-07-06T03:57:46;1.90;;;1.40;;
21733;SDS011;11029;47.820;10.534;2022-07-06T04:00:16;2.22;;;1.38;;
21733;SDS011;11029;47.820;10.534;2022-07-06T04:02:50;1.60;;;1.30;;
21733;SDS011;11029;47.820;10.534;2022-07-06T04:05:21;2.60;;;2.03;;
21733;SDS011;11029;47.820;10.534;2022-07-06T04:07:51;2.45;;;1.50;;
21733;SDS011;11029;47.820;10.534;2022-07-06T04:10:19;2.92;;;1.30;;
21733;SDS011;11029;47.820;10.534;2022-07-06T04:12:47;1.85;;;1.50;;
21733;SDS011;11029;47.820;10.534;2022-07-06T04:15:15;3.45;;;1.33;;
21733;SDS011;11029;47.820;10.534;2022-07-06T04:17:43;2.00;;;1.48;;
21733;SDS011;11029;47.820;10.534;2022-07-06T04:20:23;1.52;;;1.40;;
21733;SDS011;11029;47.820;10.534;2022-07-06T04:22:52;1.63;;;1.52;;
21733;SDS011;11029;47.820;10.534;2022-07-06T04:25:21;1.50;;;1.40;;
21733;SDS011;11029;47.820;10.534;2022-07-06T04:27:48;1.55;;;1.42;;
21733;SDS011;11029;47.820;10.534;2022-07-06T04:30:15;1.40;;;1.30;;
21733;SDS011;11029;47.820;10.534;2022-07-06T04:32:42;1.52;;;1.42;;
21733;SDS011;11029;47.820;10.534;2022-07-06T04:35:10;1.75;;;1.65;;
21733;SDS011;11029;47.820;10.534;2022-07-06T04:37:38;3.58;;;1.50;;
21733;SDS011;11029;47.820;10.534;2022-07-06T04:40:05;1.67;;;1.55;;
21733;SDS011;11029;47.820;10.534;2022-07-06T04:42:32;1.48;;;1.38;;
21733;SDS011;11029;47.820;10.534;2022-07-06T04:44:59;1.88;;;1.50;;
21733;SDS011;11029;47.820;10.534;2022-07-06T04:47:26;2.13;;;1.35;;
21733;SDS011;11029;47.820;10.534;2022-07-06T04:49:53;1.70;;;1.60;;
21733;SDS011;11029;47.820;10.534;2022-07-06T04:52:21;2.05;;;1.90;;
21733;SDS011;11029;47.820;10.534;2022-07-06T04:54:47;2.58;;;1.38;;
21733;SDS011;11029;47.820;10.534;2022-07-06T04:57:14;1.88;;;1.77;;
21733;SDS011;11029;47.820;10.534;2022-07-06T04:59:42;2.80;;;1.50;;
21733;SDS011;11029;47.820;10.534;2022-07-06T05:02:09;3.72;;;1.50;;
21733;SDS011;11029;47.820;10.534;2022-07-06T05:04:36;1.80;;;1.70;;
21733;SDS011;11029;47.820;10.534;2022-07-06T05:07:03;2.28;;;1.52;;
21733;SDS011;11029;47.820;10.534;2022-07-06T05:09:30;3.33;;;1.83;;
21733;SDS011;11029;47.820;10.534;2022-07-06T05:11:58;4.32;;;1.83;;
21733;SDS011;11029;47.820;10.534;2022-07-06T05:14:25;4.32;;;2.33;;
21733;SDS011;11029;47.820;10.534;2022-07-06T05:16:52;3.85;;;1.85;;
21733;SDS011;11029;47.820;10.534;2022-07-06T05:19:21;2.08;;;1.60;;
21733;SDS011;11029;47.820;10.534;2022-07-06T05:21:48;4.30;;;1.90;;
21733;SDS011;11029;47.820;10.534;2022-07-06T05:24:15;1.70;;;1.60;;
21733;SDS011;11029;47.820;10.534;2022-07-06T05:26:43;3.15;;;1.52;;
21733;SDS011;11029;47.820;10.534;2022-07-06T05:29:10;3.40;;;1.67;;
21733;SDS011;11029;47.820;10.534;2022-07-06T05:31:37;1.73;;;1.58;;
21733;SDS011;11029;47.820;10.534;2022-07-06T05:34:04;1.75;;;1.65;;
21733;SDS011;11029;47.820;10.534;2022-07-06T05:36:31;1.98;;;1.70;;
21733;SDS011;11029;47.820;10.534;2022-07-06T05:38:58;2.08;;;1.88;;
21733;SDS011;11029;47.820;10.534;2022-07-06T05:41:26;3.50;;;1.80;;
21733;SDS011;11029;47.820;10.534;2022-07-06T05:43:58;1.90;;;1.80;;
21733;SDS011;11029;47.820;10.534;2022-07-06T05:46:25;1.80;;;1.70;;
21733;SDS011;11029;47.820;10.534;2022-07-06T05:48:52;2.83;;;1.83;;
21733;SDS011;11029;47.820;10.534;2022-07-06T05:51:37;2.63;;;1.80;;
21733;SDS011;11029;47.820;10.534;2022-07-06T05:54:05;2.58;;;2.03;;
21733;SDS011;11029;47.820;10.534;2022-07-06T05:56:32;1.85;;;1.70;;
21733;SDS011;11029;47.820;10.534;2022-07-06T05:59:00;1.85;;;1.73;;
21733;SDS011;11029;47.820;10.534;2022-07-06T06:01:28;2.38;;;1.80;;
21733;SDS011;11029;47.820;10.534;2022-07-06T06:04:05;3.65;;;2.03;;
21733;SDS011;11029;47.820;10.534;2022-07-06T06:06:32;3.28;;;2.42;;
21733;SDS011;11029;47.820;10.534;2022-07-06T06:08:59;3.13;;;2.15;;
21733;SDS011;11029;47.820;10.534;2022-07-06T06:11:26;3.67;;;2.08;;
21733;SDS011;11029;47.820;10.534;2022-07-06T06:13:53;2.28;;;1.95;;
21733;SDS011;11029;47.820;10.534;2022-07-06T06:16:20;3.17;;;2.15;;
21733;SDS011;11029;47.820;10.534;2022-07-06T06:18:47;3.45;;;2.15;;
21733;SDS011;11029;47.820;10.534;2022-07-06T06:21:14;2.28;;;2.17;;
21733;SDS011;11029;47.820;10.534;2022-07-06T06:23:41;2.50;;;1.98;;
21733;SDS011;11029;47.820;10.534;2022-07-06T06:26:07;2.55;;;2.35;;
21733;SDS011;11029;47.820;10.534;2022-07-06T06:28:34;2.58;;;2.03;;
21733;SDS011;11029;47.820;10.534;2022-07-06T06:31:02;2.28;;;2.17;;
21733;SDS011;11029;47.820;10.534;2022-07-06T06:33:29;2.00;;;1.90;;
21733;SDS011;11029;47.820;10.534;2022-07-06T06:35:56;3.33;;;2.15;;
21733;SDS011;11029;47.820;10.534;2022-07-06T06:38:23;3.00;;;2.80;;
21733;SDS011;11029;47.820;10.534;2022-07-06T06:40:55;3.07;;;2.20;;
21733;SDS011;11029;47.820;10.534;2022-07-06T06:43:21;1.85;;;1.75;;
21733;SDS011;11029;47.820;10.534;2022-07-06T06:46:00;2.97;;;2.15;;
21733;SDS011;11029;47.820;10.534;2022-07-06T06:48:26;2.38;;;2.08;;
21733;SDS011;11029;47.820;10.534;2022-07-06T06:50:54;2.88;;;1.95;;
21733;SDS011;11029;47.820;10.534;2022-07-06T06:53:20;3.28;;;1.98;;
21733;SDS011;11029;47.820;10.534;2022-07-06T06:55:47;3.35;;;1.80;;
21733;SDS011;11029;47.820;10.534;2022-07-06T06:58:14;2.00;;;1.80;;
21733;SDS011;11029;47.820;10.534;2022-07-06T07:00:41;5.35;;;2.47;;
21733;SDS011;11029;47.820;10.534;2022-07-06T07:03:09;3.17;;;2.30;;
21733;SDS011;11029;47.820;10.534;2022-07-06T07:05:36;4.82;;;2.30;;
21733;SDS011;11029;47.820;10.534;2022-07-06T07:08:03;2.25;;;2.10;;
21733;SDS011;11029;47.820;10.534;2022-07-06T07:10:31;3.20;;;2.20;;
21733;SDS011;11029;47.820;10.534;2022-07-06T07:12:59;2.22;;;2.03;;
21733;SDS011;11029;47.820;10.534;2022-07-06T07:15:25;4.07;;;2.45;;
21733;SDS011;11029;47.820;10.534;2022-07-06T07:17:52;6.38;;;2.72;;
21733;SDS011;11029;47.820;10.534;2022-07-06T07:20:19;3.20;;;2.90;;
21733;SDS011;11029;47.820;10.534;2022-07-06T07:22:46;2.95;;;2.25;;
21733;SDS011;11029;47.820;10.534;2022-07-06T07:25:13;2.38;;;2.03;;
21733;SDS011;11029;47.820;10.534;2022-07-06T07:27:40;3.47;;;2.35;;
21733;SDS011;11029;47.820;10.534;2022-07-06T07:30:07;3.25;;;2.30;;
21733;SDS011;11029;47.820;10.534;2022-07-06T07:32:34;2.58;;;2.28;;
21733;SDS011;11029;47.820;10.534;2022-07-06T07:35:01;4.40;;;2.38;;
21733;SDS011;11029;47.820;10.534;2022-07-06T07:37:28;2.70;;;2.50;;
21733;SDS011;11029;47.820;10.534;2022-07-06T07:39:55;4.18;;;2.70;;
21733;SDS011;11029;47.820;10.534;2022-07-06T07:42:22;3.90;;;2.63;;
21733;SDS011;11029;47.820;10.534;2022-07-06T07:44:49;3.53;;;2.53;;
21733;SDS011;11029;47.820;10.534;2022-07-06T07:47:16;2.40;;;2.20;;
21733;SDS011;11029;47.820;10.534;2022-07-06T07:49:42;4.35;;;2.20;;
21733;SDS011;11029;47.820;10.534;2022-07-06T07:52:10;5.97;;;3.35;;
21733;SDS011;11029;47.820;10.534;2022-07-06T07:54:37;5.97;;;2.30;;
21733;SDS011;11029;47.820;10.534;2022-07-06T07:57:12;2.58;;;2.17;;
21733;SDS011;11029;47.820;10.534;2022-07-06T07:59:38;3.50;;;3.20;;
21733;SDS011;11029;47.820;10.534;2022-07-06T08:02:06;2.58;;;2.13;;
21733;SDS011;11029;47.820;10.534;2022-07-06T08:04:32;2.22;;;2.08;;
21733;SDS011;11029;47.820;10.534;2022-07-06T08:06:59;4.78;;;3.42;;
21733;SDS011;11029;47.820;10.534;2022-07-06T08:09:27;6.78;;;4.50;;
21733;SDS011;11029;47.820;10.534;2022-07-06T08:11:54;3.03;;;2.67;;
21733;SDS011;11029;47.820;10.534;2022-07-06T08:14:21;4.68;;;3.00;;
21733;SDS011;11029;47.820;10.534;2022-07-06T08:16:48;5.45;;;2.92;;
21733;SDS011;11029;47.820;10.534;2022-07-06T08:19:14;6.60;;;3.45;;
21733;SDS011;11029;47.820;10.534;2022-07-06T08:21:42;2.90;;;2.33;;
21733;SDS011;11029;47.820;10.534;2022-07-06T08:24:09;3.40;;;2.30;;
21733;SDS011;11029;47.820;10.534;2022-07-06T08:26:36;2.88;;;2.67;;
21733;SDS011;11029;47.820;10.534;2022-07-06T08:29:04;3.10;;;2.45;;
21733;SDS011;11029;47.820;10.534;2022-07-06T08:31:31;2.25;;;1.83;;
21733;SDS011;11029;47.820;10.534;2022-07-06T08:34:20;2.30;;;2.10;;
21733;SDS011;11029;47.820;10.534;2022-07-06T08:36:47;2.47;;;2.28;;
21733;SDS011;11029;47.820;10.534;2022-07-06T08:39:13;5.55;;;2.55;;
21733;SDS011;11029;47.820;10.534;2022-07-06T08:41:40;4.07;;;2.05;;
21733;SDS011;11029;47.820;10.534;2022-07-06T08:44:08;3.88;;;2.30;;
21733;SDS011;11029;47.820;10.534;2022-07-06T08:46:38;2.45;;;2.05;;
21733;SDS011;11029;47.820;10.534;2022-07-06T08:49:07;5.00;;;1.90;;
21733;SDS011;11029;47.820;10.534;2022-07-06T08:51:35;4.25;;;2.15;;
21733;SDS011;11029;47.820;10.534;2022-07-06T08:54:02;2.85;;;1.80;;
21733;SDS011;11029;47.820;10.534;2022-07-06T08:56:30;1.92;;;1.60;;
21733;SDS011;11029;47.820;10.534;2022-07-06T08:58:57;3.70;;;2.00;;
21733;SDS011;11029;47.820;10.534;2022-07-06T09:01:24;1.92;;;1.60;;
21733;SDS011;11029;47.820;10.534;2022-07-06T09:03:51;3.30;;;1.80;;
21733;SDS011;11029;47.820;10.534;2022-07-06T09:06:23;5.88;;;1.85;;
21733;SDS011;11029;47.820;10.534;2022-07-06T09:08:53;1.83;;;1.73;;
21733;SDS011;11029;47.820;10.534;2022-07-06T09:11:21;2.13;;;1.50;;
21733;SDS011;11029;47.820;10.534;2022-07-06T09:13:49;3.40;;;1.75;;
21733;SDS011;11029;47.820;10.534;2022-07-06T09:16:17;3.22;;;1.40;;
21733;SDS011;11029;47.820;10.534;2022-07-06T09:19:06;2.53;;;1.70;;
21733;SDS011;11029;47.820;10.534;2022-07-06T09:21:34;4.80;;;1.73;;
21733;SDS011;11029;47.820;10.534;2022-07-06T09:24:08;5.40;;;1.80;;
21733;SDS011;11029;47.820;10.534;2022-07-06T09:26:38;3.25;;;1.45;;
21733;SDS011;11029;47.820;10.534;2022-07-06T09:29:07;3.40;;;1.17;;
21733;SDS011;11029;47.820;10.534;2022-07-06T09:31:34;2.22;;;1.50;;
21733;SDS011;11029;47.820;10.534;2022-07-06T09:34:02;1.52;;;1.23;;
21733;SDS011;11029;47.820;10.534;2022-07-06T09:39:22;1.77;;;1.30;;
21733;SDS011;11029;47.820;10.534;2022-07-06T09:41:56;3.40;;;1.40;;
21733;SDS011;11029;47.820;10.534;2022-07-06T09:44:26;2.78;;;1.40;;
21733;SDS011;11029;47.820;10.534;2022-07-06T09:46:58;1.52;;;1.27;;
21733;SDS011;11029;47.820;10.534;2022-07-06T09:49:33;3.20;;;1.35;;
21733;SDS011;11029;47.820;10.534;2022-07-06T09:52:17;2.03;;;1.30;;
21733;SDS011;11029;47.820;10.534;2022-07-06T09:54:48;1.88;;;1.40;;
21733;SDS011;11029;47.820;10.534;2022-07-06T09:57:14;4.38;;;2.30;;
21733;SDS011;11029;47.820;10.534;2022-07-06T09:59:41;2.47;;;1.85;;
21733;SDS011;11029;47.820;10.534;2022-07-06T10:02:08;3.15;;;1.60;;
21733;SDS011;11029;47.820;10.534;2022-07-06T10:04:35;2.35;;;1.83;;
21733;SDS011;11029;47.820;10.534;2022-07-06T10:07:02;2.42;;;1.58;;
21733;SDS011;11029;47.820;10.534;2022-07-06T10:09:30;2.60;;;2.20;;
21733;SDS011;11029;47.820;10.534;2022-07-06T10:12:01;2.67;;;2.17;;
21733;SDS011;11029;47.820;10.534;2022-07-06T10:14:29;2.40;;;1.73;;
21733;SDS011;11029;47.820;10.534;2022-07-06T10:16:58;2.47;;;2.05;;
21733;SDS011;11029;47.820;10.534;2022-07-06T10:19:27;2.13;;;1.77;;
21733;SDS011;11029;47.820;10.534;2022-07-06T10:21:59;3.90;;;1.70;;
21733;SDS011;11029;47.820;10.534;2022-07-06T10:24:27;4.35;;;2.25;;
21733;SDS011;11029;47.820;10.534;2022-07-06T10:26:55;2.47;;;2.17;;
21733;SDS011;11029;47.820;10.534;2022-07-06T10:29:22;1.63;;;1.52;;
21733;SDS011;11029;47.820;10.534;2022-07-06T10:31:50;3.30;;;1.80;;
21733;SDS011;11029;47.820;10.534;2022-07-06T10:34:18;2.80;;;2.00;;
21733;SDS011;11029;47.820;10.534;2022-07-06T10:36:50;3.75;;;1.73;;
21733;SDS011;11029;47.820;10.534;2022-07-06T10:39:34;3.67;;;1.90;;
21733;SDS011;11029;47.820;10.534;2022-07-06T10:45:13;5.40;;;1.83;;
21733;SDS011;11029;47.820;10.534;2022-07-06T10:47:41;1.85;;;1.65;;
21733;SDS011;11029;47.820;10.534;2022-07-06T10:50:08;2.63;;;1.63;;
21733;SDS011;11029;47.820;10.534;2022-07-06T10:52:58;1.63;;;1.30;;
21733;SDS011;11029;47.820;10.534;2022-07-06T10:55:35;2.67;;;1.52;;
21733;SDS011;11029;47.820;10.534;2022-07-06T10:58:03;2.65;;;1.70;;
21733;SDS011;11029;47.820;10.534;2022-07-06T11:03:30;4.30;;;1.80;;
21733;SDS011;11029;47.820;10.534;2022-07-06T11:11:11;4.93;;;2.10;;
21733;SDS011;11029;47.820;10.534;2022-07-06T11:13:42;3.95;;;2.10;;
21733;SDS011;11029;47.820;10.534;2022-07-06T11:16:18;1.75;;;1.60;;
21733;SDS011;11029;47.820;10.534;2022-07-06T11:18:48;2.88;;;1.77;;
21733;SDS011;11029;47.820;10.534;2022-07-06T11:21:35;4.80;;;2.00;;
21733;SDS011;11029;47.820;10.534;2022-07-06T11:24:02;2.08;;;1.88;;
21733;SDS011;11029;47.820;10.534;2022-07-06T11:26:31;2.70;;;1.80;;
21733;SDS011;11029;47.820;10.534;2022-07-06T11:29:05;3.25;;;1.70;;
21733;SDS011;11029;47.820;10.534;2022-07-06T11:31:33;3.10;;;1.70;;
21733;SDS011;11029;47.820;10.534;2022-07-06T11:34:05;1.65;;;1.55;;
21733;SDS011;11029;47.820;10.534;2022-07-06T11:36:33;1.63;;;1.52;;
21733;SDS011;11029;47.820;10.534;2022-07-06T11:39:04;4.30;;;1.55;;
21733;SDS011;11029;47.820;10.534;2022-07-06T11:41:34;3.92;;;1.38;;
21733;SDS011;11029;47.820;10.534;2022-07-06T11:44:01;5.38;;;1.70;;
21733;SDS011;11029;47.820;10.534;2022-07-06T11:49:00;2.55;;;1.65;;
21733;SDS011;11029;47.820;10.534;2022-07-06T11:51:29;4.20;;;1.92;;
21733;SDS011;11029;47.820;10.534;2022-07-06T11:53:58;1.77;;;1.38;;
21733;SDS011;11029;47.820;10.534;2022-07-06T11:56:27;4.72;;;1.60;;
21733;SDS011;11029;47.820;10.534;2022-07-06T11:58:55;3.92;;;1.75;;
21733;SDS011;11029;47.820;10.534;2022-07-06T12:01:24;4.13;;;1.60;;
21733;SDS011;11029;47.820;10.534;2022-07-06T12:03:53;2.28;;;1.58;;
21733;SDS011;11029;47.820;10.534;2022-07-06T12:06:24;2.65;;;1.60;;
21733;SDS011;11029;47.820;10.534;2022-07-06T12:08:53;2.58;;;1.45;;
21733;SDS011;11029;47.820;10.534;2022-07-06T12:11:22;1.65;;;1.55;;
21733;SDS011;11029;47.820;10.534;2022-07-06T12:13:51;1.85;;;1.70;;
21733;SDS011;11029;47.820;10.534;2022-07-06T12:16:33;3.13;;;1.98;;
21733;SDS011;11029;47.820;10.534;2022-07-06T12:19:02;1.90;;;1.70;;
21733;SDS011;11029;47.820;10.534;2022-07-06T12:21:33;1.70;;;1.60;;
21733;SDS011;11029;47.820;10.534;2022-07-06T12:24:01;2.55;;;1.75;;
21733;SDS011;11029;47.820;10.534;2022-07-06T12:26:38;2.70;;;1.50;;
21733;SDS011;11029;47.820;10.534;2022-07-06T12:29:07;2.25;;;1.63;;
21733;SDS011;11029;47.820;10.534;2022-07-06T12:31:37;1.83;;;1.73;;
21733;SDS011;11029;47.820;10.534;2022-07-06T12:34:11;2.00;;;1.73;;
21733;SDS011;11029;47.820;10.534;2022-07-06T12:36:43;4.38;;;1.60;;
21733;SDS011;11029;47.820;10.534;2022-07-06T12:39:11;5.38;;;1.50;;
21733;SDS011;11029;47.820;10.534;2022-07-06T12:41:47;3.85;;;1.67;;
21733;SDS011;11029;47.820;10.534;2022-07-06T12:44:19;1.95;;;1.50;;
21733;SDS011;11029;47.820;10.534;2022-07-06T12:47:10;3.28;;;1.60;;
21733;SDS011;11029;47.820;10.534;2022-07-06T12:49:36;4.47;;;1.85;;
21733;SDS011;11029;47.820;10.534;2022-07-06T12:54:42;4.82;;;1.55;;
21733;SDS011;11029;47.820;10.534;2022-07-06T13:02:36;2.78;;;1.80;;
21733;SDS011;11029;47.820;10.534;2022-07-06T13:05:23;2.20;;;1.60;;
21733;SDS011;11029;47.820;10.534;2022-07-06T13:07:54;2.78;;;1.35;;
21733;SDS011;11029;47.820;10.534;2022-07-06T13:10:22;2.55;;;1.50;;
21733;SDS011;11029;47.820;10.534;2022-07-06T13:12:50;1.70;;;1.30;;
21733;SDS011;11029;47.820;10.534;2022-07-06T13:15:17;2.17;;;1.65;;
21733;SDS011;11029;47.820;10.534;2022-07-06T13:17:44;1.60;;;1.38;;
21733;SDS011;11029;47.820;10.534;2022-07-06T13:20:11;3.58;;;1.60;;
21733;SDS011;11029;47.820;10.534;2022-07-06T13:22:39;2.80;;;1.42;;
21733;SDS011;11029;47.820;10.534;2022-07-06T13:25:06;2.65;;;1.38;;
21733;SDS011;11029;47.820;10.534;2022-07-06T13:27:33;5.88;;;1.83;;
21733;SDS011;11029;47.820;10.534;2022-07-06T13:30:00;2.83;;;1.40;;
21733;SDS011;11029;47.820;10.534;2022-07-06T13:32:28;4.22;;;1.35;;
21733;SDS011;11029;47.820;10.534;2022-07-06T13:34:55;1.42;;;1.25;;
21733;SDS011;11029;47.820;10.534;2022-07-06T13:37:22;10.75;;;1.70;;
21733;SDS011;11029;47.820;10.534;2022-07-06T13:39:48;4.05;;;1.52;;
21733;SDS011;11029;47.820;10.534;2022-07-06T13:42:15;2.95;;;1.17;;
21733;SDS011;11029;47.820;10.534;2022-07-06T13:44:42;1.85;;;1.48;;
21733;SDS011;11029;47.820;10.534;2022-07-06T13:47:09;2.97;;;1.02;;
21733;SDS011;11029;47.820;10.534;2022-07-06T13:49:36;1.40;;;1.30;;
21733;SDS011;11029;47.820;10.534;2022-07-06T13:52:03;1.65;;;1.30;;
21733;SDS011;11029;47.820;10.534;2022-07-06T13:54:31;3.25;;;1.33;;
21733;SDS011;11029;47.820;10.534;2022-07-06T13:57:01;4.30;;;1.65;;
21733;SDS011;11029;47.820;10.534;2022-07-06T13:59:29;3.70;;;1.20;;
21733;SDS011;11029;47.820;10.534;2022-07-06T14:01:56;1.48;;;1.10;;
21733;SDS011;11029;47.820;10.534;2022-07-06T14:04:23;5.20;;;1.30;;
21733;SDS011;11029;47.820;10.534;2022-07-06T14:06:50;3.83;;;1.50;;
21733;SDS011;11029;47.820;10.534;2022-07-06T14:09:17;1.80;;;1.70;;
21733;SDS011;11029;47.820;10.534;2022-07-06T14:11:43;1.60;;;1.50;;
21733;SDS011;11029;47.820;10.534;2022-07-06T14:14:10;1.92;;;1.10;;
21733;SDS011;11029;47.820;10.534;2022-07-06T14:16:37;1.40;;;1.30;;
21733;SDS011;11029;47.820;10.534;2022-07-06T14:19:06;7.78;;;1.60;;
21733;SDS011;11029;47.820;10.534;2022-07-06T14:21:33;1.88;;;1.17;;
21733;SDS011;11029;47.820;10.534;2022-07-06T14:24:00;1.50;;;1.40;;
21733;SDS011;11029;47.820;10.534;2022-07-06T14:26:27;3.17;;;1.38;;
21733;SDS011;11029;47.820;10.534;2022-07-06T14:28:54;4.05;;;1.42;;
21733;SDS011;11029;47.820;10.534;2022-07-06T14:31:20;2.38;;;1.50;;
21733;SDS011;11029;47.820;10.534;2022-07-06T14:33:48;2.90;;;1.48;;
21733;SDS011;11029;47.820;10.534;2022-07-06T14:36:15;4.10;;;1.55;;
21733;SDS011;11029;47.820;10.534;2022-07-06T14:38:43;1.90;;;1.70;;
21733;SDS011;11029;47.820;10.534;2022-07-06T14:41:09;5.13;;;1.67;;
21733;SDS011;11029;47.820;10.534;2022-07-06T14:43:36;1.90;;;1.65;;
21733;SDS011;11029;47.820;10.534;2022-07-06T14:46:03;2.25;;;1.48;;
21733;SDS011;11029;47.820;10.534;2022-07-06T14:48:30;1.83;;;1.35;;
21733;SDS011;11029;47.820;10.534;2022-07-06T14:50:57;1.52;;;1.42;;
21733;SDS011;11029;47.820;10.534;2022-07-06T14:53:24;3.78;;;1.38;;
21733;SDS011;11029;47.820;10.534;2022-07-06T14:55:52;1.77;;;1.30;;
21733;SDS011;11029;47.820;10.534;2022-07-06T14:58:19;1.20;;;1.10;;
21733;SDS011;11029;47.820;10.534;2022-07-06T15:00:46;1.92;;;1.33;;
21733;SDS011;11029;47.820;10.534;2022-07-06T15:03:18;4.50;;;1.40;;
21733;SDS011;11029;47.820;10.534;2022-07-06T15:05:44;4.22;;;1.25;;